Station: EBSP - 23/06/2018 04:21Z (il y a 11 minutes)
EBSP 230420Z AUTO 34005KT 300V010 4500 BR BKN002/// OVC003/// 07/06 Q1028
Vent du 340º - 5 kt (vent de direction variable de 300º à 010º)
Visibilité: 4500 m (brume)
Ciel 75% couvert à 200 pieds - Ciel couvert à 300 pieds
Température: +07ºC - Point de rosée: +06ºC - QNH: 1028 hPa